< Typhoon 198003 1980 Season Typhoon 198005 >
Typhoon 198004 (FORREST)
General InformationTrack Information on Google MapsDetailed Wind Information || Disaster Info.ResourceGoogle EarthGE AnimationAtom FeedGeoJSON
Detalied Best Track (Time Zone = UTC)
Year Month Day Hour Lat. Long. Pressure (hPa) Wind (kt) Class Image Chart
1980 5 19 00 6.4 154.8 1008 0 2 -- Chart
1980 5 19 06 6.4 154.0 1006 0 2 -- Chart
1980 5 19 12 6.5 153.2 1006 0 2 -- Chart
1980 5 19 18 6.6 152.2 1006 0 2 -- Chart
1980 5 20 00 6.8 151.3 1004 0 2 -- Chart
1980 5 20 06 7.5 150.0 1000 35 3 -- Chart
1980 5 20 12 8.0 148.3 1000 35 3 -- Chart
1980 5 20 18 8.7 146.7 998 40 3 -- Chart
1980 5 21 00 9.2 144.9 996 40 3 -- Chart
1980 5 21 06 9.2 143.4 996 45 3 -- Chart
1980 5 21 12 9.3 142.0 996 35 3 -- Chart
1980 5 21 18 9.9 140.4 996 35 3 -- Chart
1980 5 22 00 10.6 138.6 996 40 3 -- Chart
1980 5 22 06 10.6 137.5 996 45 3 -- Chart
1980 5 22 12 10.9 136.0 996 45 3 -- Chart
1980 5 22 18 10.9 134.0 994 45 3 -- Chart
1980 5 23 00 10.9 132.4 992 50 4 -- Chart
1980 5 23 06 11.2 131.1 992 50 4 -- Chart
1980 5 23 12 11.6 129.6 992 45 3 -- Chart
1980 5 23 18 12.1 127.9 992 45 3 -- Chart
1980 5 24 00 12.7 126.2 994 50 4 -- Chart
1980 5 24 06 13.3 125.0 994 55 4 -- Chart
1980 5 24 12 14.0 123.9 996 55 4 -- Chart
1980 5 24 18 14.7 122.7 998 45 3 -- Chart
1980 5 25 00 15.2 121.9 998 45 3 -- Chart
1980 5 25 06 15.8 121.2 1000 40 3 -- Chart
1980 5 25 12 16.6 120.6 1002 35 3 -- Chart
1980 5 25 18 18.0 120.1 1004 35 3 -- Chart
1980 5 26 00 19.6 120.1 1004 0 2 -- Chart
1980 5 26 06 20.2 120.5 1002 0 2 -- Chart
1980 5 26 12 20.6 120.9 1002 0 2 -- Chart
1980 5 26 18 20.8 121.5 1004 0 6 -- Chart
1980 5 27 00 21.0 123.0 1006 0 6 -- Chart
1980 5 27 06 22.0 124.0 1006 0 6 -- Chart
1980 5 27 12 23.0 124.5 1006 0 6 -- Chart
1980 5 27 18 24.0 125.0 1006 0 6 -- Chart
1980 5 28 00 25.5 125.5 1008 0 6 -- Chart
1980 5 28 06 26.0 126.0 1008 0 6 -- Chart
1980 5 28 12 27.0 127.0 1008 0 6 -- Chart
1980 5 28 18 29.0 130.0 1010 0 6 -- Chart
1980 5 29 00 31.0 132.0 1012 0 6 -- Chart
1980 5 29 06 32.0 134.0 1010 0 6 -- Chart
1980 5 29 12 33.0 134.0 1012 0 6 -- Chart
Japan Meteorological Agency Best Track Data | Correction Date : 1992-10-21
< Typhoon 198003 1980 Season Typhoon 198005 >

Help